createdAt,value
2023-04-18T00:00:58.714Z,34.1709
2023-04-18T00:02:02.663Z,34.1834
2023-04-18T00:03:06.802Z,34.2092
2023-04-18T00:04:11.045Z,34.2101
2023-04-18T00:05:15.275Z,34.2242
2023-04-18T00:06:19.172Z,34.2278
2023-04-18T00:07:23.086Z,34.2078
2023-04-18T00:08:26.981Z,34.1803
2023-04-18T00:09:30.925Z,34.1719
2023-04-18T00:10:35.049Z,34.2224
2023-04-18T00:11:38.956Z,34.2589
2023-04-18T00:12:43.312Z,34.2459
2023-04-18T00:13:47.241Z,34.2241
2023-04-18T00:14:51.124Z,34.2250
2023-04-18T00:15:55.054Z,34.2192
2023-04-18T00:16:58.988Z,34.2271
2023-04-18T00:18:03.328Z,34.2144
2023-04-18T00:19:07.280Z,34.2089
2023-04-18T00:20:11.450Z,34.2077
2023-04-18T00:21:15.331Z,34.2337
2023-04-18T00:22:19.247Z,34.2418
2023-04-18T00:23:23.155Z,34.2472
2023-04-18T00:24:27.054Z,34.2298
2023-04-18T00:25:30.972Z,34.2454
2023-04-18T00:26:34.872Z,34.2273
2023-04-18T00:27:39.049Z,34.2692
2023-04-18T00:28:42.926Z,34.2692
2023-04-18T00:29:47.072Z,34.2433
2023-04-18T00:30:50.988Z,34.2518
2023-04-18T00:31:54.874Z,34.2638
2023-04-18T00:32:58.807Z,34.2547
2023-04-18T00:34:02.716Z,34.2485
2023-04-18T00:35:06.947Z,34.2393
2023-04-18T00:36:10.849Z,34.2662
2023-04-18T00:37:14.771Z,34.2747
2023-04-18T00:38:18.720Z,34.2673
2023-04-18T00:39:22.617Z,34.2194
2023-04-18T00:40:26.781Z,34.2078
2023-04-18T00:41:30.709Z,34.2439
2023-04-18T00:42:34.913Z,34.2808
2023-04-18T00:43:38.989Z,34.2880
2023-04-18T00:44:42.899Z,34.2725
2023-04-18T00:45:46.828Z,34.2587
2023-04-18T00:46:50.722Z,34.2521
2023-04-18T00:47:54.656Z,34.2462
2023-04-18T00:48:58.586Z,34.2555
2023-04-18T00:50:02.492Z,34.2513
2023-04-18T00:51:06.400Z,34.2396
2023-04-18T00:52:10.305Z,34.2594
2023-04-18T00:53:14.215Z,34.2470
2023-04-18T00:54:18.125Z,34.2373
2023-04-18T00:55:22.247Z,34.2107
2023-04-18T00:56:26.167Z,34.2400
2023-04-18T00:57:30.286Z,34.2696
2023-04-18T00:58:34.196Z,34.2743
2023-04-18T00:59:38.107Z,34.2615
2023-04-18T01:00:42.017Z,34.2793
2023-04-18T01:01:45.926Z,34.3038
2023-04-18T01:02:50.302Z,34.2665
2023-04-18T01:03:54.318Z,34.2795
2023-04-18T01:04:58.520Z,34.2788
2023-04-18T01:06:02.413Z,34.2732
2023-04-18T01:07:06.369Z,34.2742
2023-04-18T01:08:10.238Z,34.2704
2023-04-18T01:09:14.161Z,34.2775
2023-04-18T01:10:18.384Z,34.2652
2023-04-18T01:11:22.275Z,34.2725
2023-04-18T01:12:26.186Z,34.2625
2023-04-18T01:13:30.081Z,34.2620
2023-04-18T01:14:33.987Z,34.2789
2023-04-18T01:15:37.948Z,34.2971
2023-04-18T01:16:41.814Z,34.3191
2023-04-18T01:17:45.729Z,34.3089
2023-04-18T01:18:49.657Z,34.2972
2023-04-18T01:19:53.817Z,34.3167
2023-04-18T01:20:57.730Z,34.3100
2023-04-18T01:22:01.622Z,34.2775
2023-04-18T01:23:05.528Z,34.2981
2023-04-18T01:24:09.429Z,34.2902
2023-04-18T01:25:13.334Z,34.2718
2023-04-18T01:26:17.269Z,34.2752
2023-04-18T01:27:21.442Z,34.2955
2023-04-18T01:28:25.337Z,34.3226
2023-04-18T01:29:29.480Z,34.3262
2023-04-18T01:30:33.387Z,34.2991
2023-04-18T01:31:37.346Z,34.2917
2023-04-18T01:32:41.293Z,34.3151
2023-04-18T01:33:45.187Z,34.3004
2023-04-18T01:34:49.114Z,34.3036
2023-04-18T01:35:53.029Z,34.3046
2023-04-18T01:36:56.922Z,34.3041
2023-04-18T01:38:00.827Z,34.2936
2023-04-18T01:39:04.741Z,34.2990
2023-04-18T01:40:08.979Z,34.2835
2023-04-18T01:41:12.859Z,34.2938
2023-04-18T01:42:16.773Z,34.2913
2023-04-18T01:43:20.684Z,34.2966
2023-04-18T01:44:24.594Z,34.3048
2023-04-18T01:45:28.511Z,34.3167
2023-04-18T01:46:32.473Z,34.3085
2023-04-18T01:47:36.558Z,34.3070
2023-04-18T01:48:40.483Z,34.3390
2023-04-18T01:49:44.374Z,34.3305
2023-04-18T01:50:48.287Z,34.3248
2023-04-18T01:51:52.181Z,34.3373
2023-04-18T01:52:56.107Z,34.3196
2023-04-18T01:54:00.020Z,34.3131
2023-04-18T01:55:04.146Z,34.3198
2023-04-18T01:56:08.070Z,34.3270
2023-04-18T01:57:12.005Z,34.3337
2023-04-18T01:58:15.909Z,34.3236
2023-04-18T01:59:19.810Z,34.3395
2023-04-18T02:00:23.934Z,34.3496
2023-04-18T02:01:27.888Z,34.3612
2023-04-18T02:02:32.087Z,34.3327
2023-04-18T02:03:36.259Z,34.3224
2023-04-18T02:04:40.236Z,34.3197
2023-04-18T02:05:44.171Z,34.3027
2023-04-18T02:06:48.079Z,34.3128
2023-04-18T02:07:52.008Z,34.3250
2023-04-18T02:08:55.934Z,34.3270
2023-04-18T02:10:00.071Z,34.3210
2023-04-18T02:11:03.934Z,34.3275
2023-04-18T02:12:08.084Z,34.3310
2023-04-18T02:13:11.989Z,34.3543
2023-04-18T02:14:15.928Z,34.3449
2023-04-18T02:15:19.888Z,34.3238
2023-04-18T02:16:23.831Z,34.3245
2023-04-18T02:17:27.740Z,34.3116
2023-04-18T02:18:31.607Z,34.3309
2023-04-18T02:19:35.765Z,34.3459
2023-04-18T02:20:39.651Z,34.3362
2023-04-18T02:21:43.557Z,34.3491
2023-04-18T02:22:47.466Z,34.3697
2023-04-18T02:23:51.383Z,34.3777
2023-04-18T02:24:55.532Z,34.3441
2023-04-18T02:25:59.436Z,34.3252
2023-04-18T02:27:03.329Z,34.3598
2023-04-18T02:28:07.229Z,34.3556
2023-04-18T02:29:11.134Z,34.3540
2023-04-18T02:30:15.029Z,34.3554
2023-04-18T02:31:18.931Z,34.3389
2023-04-18T02:32:22.850Z,34.3383
2023-04-18T02:33:26.745Z,34.3594
2023-04-18T02:34:30.956Z,34.3580
2023-04-18T02:35:34.829Z,34.3722
2023-04-18T02:36:38.711Z,34.3655
2023-04-18T02:37:42.608Z,34.3627
2023-04-18T02:38:46.493Z,34.3708
2023-04-18T02:39:50.396Z,34.3549
2023-04-18T02:40:54.308Z,34.3581
2023-04-18T02:41:58.436Z,34.3777
2023-04-18T02:43:02.332Z,34.3571
2023-04-18T02:44:06.237Z,34.3484
2023-04-18T02:45:10.377Z,34.3683
2023-04-18T02:46:14.323Z,34.3655
2023-04-18T02:47:18.207Z,34.3470
2023-04-18T02:48:22.114Z,34.3534
2023-04-18T02:49:25.979Z,34.3521
2023-04-18T02:50:29.887Z,34.3715
2023-04-18T02:51:33.814Z,34.3694
2023-04-18T02:52:37.722Z,34.3699
2023-04-18T02:53:41.658Z,34.3595
2023-04-18T02:54:45.741Z,34.3725
2023-04-18T02:55:49.626Z,34.3378
2023-04-18T02:56:53.740Z,34.3350
2023-04-18T02:57:57.624Z,34.3276
2023-04-18T02:59:01.519Z,34.3174
2023-04-18T03:00:05.381Z,34.3406
2023-04-18T03:01:09.313Z,34.3312
2023-04-18T03:02:13.466Z,34.3356
2023-04-18T03:03:17.391Z,34.3399
2023-04-18T03:04:21.310Z,34.3657
2023-04-18T03:05:25.187Z,34.3771
2023-04-18T03:06:29.074Z,34.3592
2023-04-18T03:07:33.009Z,34.3641
2023-04-18T03:08:36.920Z,34.3792
2023-04-18T03:09:41.040Z,34.3820
2023-04-18T03:10:44.920Z,34.3772
2023-04-18T03:11:48.914Z,34.3918
2023-04-18T03:12:52.804Z,34.4390
2023-04-18T03:13:56.722Z,34.4409
2023-04-18T03:15:00.624Z,34.4554
2023-04-18T03:16:04.629Z,34.4118
2023-04-18T03:17:08.761Z,34.3703
2023-04-18T03:18:12.681Z,34.3426
2023-04-18T03:19:16.831Z,34.2920
2023-04-18T03:20:20.733Z,34.2850
2023-04-18T03:21:24.624Z,34.2550
2023-04-18T03:22:28.525Z,34.2921
2023-04-18T03:23:32.407Z,34.3201
2023-04-18T03:24:36.521Z,34.3618
2023-04-18T03:25:40.402Z,34.3698
2023-04-18T03:26:44.524Z,34.4020
2023-04-18T03:27:48.407Z,34.4999
2023-04-18T03:28:52.301Z,34.5351
2023-04-18T03:29:56.185Z,34.5682
2023-04-18T03:31:00.144Z,34.6569
2023-04-18T03:32:04.055Z,34.6329
2023-04-18T03:33:07.953Z,34.6568
2023-04-18T03:34:12.120Z,34.6390
2023-04-18T03:35:16.217Z,34.6357
2023-04-18T03:36:20.138Z,34.6771
2023-04-18T03:37:24.046Z,34.7281
2023-04-18T03:38:27.944Z,34.6864
2023-04-18T03:39:32.078Z,34.7216
2023-04-18T03:40:35.966Z,34.7536
2023-04-18T03:41:39.835Z,34.7513
2023-04-18T03:42:43.724Z,34.7073
2023-04-18T03:43:47.594Z,34.6265
2023-04-18T03:44:51.498Z,34.6432
2023-04-18T03:45:55.411Z,34.6638
2023-04-18T03:46:59.614Z,34.6640
2023-04-18T03:48:03.502Z,34.6674
2023-04-18T03:49:07.560Z,34.6585
2023-04-18T03:50:11.439Z,34.6057
2023-04-18T03:51:15.316Z,34.6541
2023-04-18T03:52:19.198Z,34.7041
2023-04-18T03:53:23.081Z,34.6761
2023-04-18T03:54:27.281Z,34.6553
2023-04-18T03:55:31.172Z,34.6928
2023-04-18T03:56:35.793Z,34.6831
2023-04-18T03:57:41.275Z,34.6504
2023-04-18T03:58:39.983Z,34.5998
2023-04-18T03:59:45.567Z,34.5799
2023-04-18T04:00:45.274Z,34.5944
2023-04-18T04:01:49.488Z,34.5816
2023-04-18T04:02:53.520Z,34.5541
2023-04-18T04:03:57.559Z,34.5727
2023-04-18T04:05:01.519Z,34.5865
2023-04-18T04:06:05.445Z,34.5719
2023-04-18T04:07:09.571Z,34.5492
2023-04-18T04:08:13.475Z,34.5393
2023-04-18T04:09:17.374Z,34.4821
2023-04-18T04:10:21.282Z,34.5111
2023-04-18T04:11:25.197Z,34.5137
2023-04-18T04:12:29.156Z,34.5117
2023-04-18T04:13:33.036Z,34.4991
2023-04-18T04:14:37.035Z,34.5454
2023-04-18T04:15:40.928Z,34.5160
2023-04-18T04:16:45.027Z,34.5003
2023-04-18T04:17:48.976Z,34.5112
2023-04-18T04:18:52.865Z,34.5434
2023-04-18T04:19:56.748Z,34.5202
2023-04-18T04:21:00.660Z,34.5333
2023-04-18T04:22:04.558Z,34.5917
2023-04-18T04:23:08.467Z,34.6272
2023-04-18T04:24:12.534Z,34.7021
2023-04-18T04:25:16.546Z,34.7248
2023-04-18T04:26:20.460Z,34.7402
2023-04-18T04:27:24.383Z,34.6906
2023-04-18T04:28:28.272Z,34.6797
2023-04-18T04:29:32.423Z,34.6331
2023-04-18T04:30:36.313Z,34.6784
2023-04-18T04:31:40.472Z,34.6824
2023-04-18T04:32:44.375Z,34.6652
2023-04-18T04:33:48.242Z,34.6695
2023-04-18T04:34:52.121Z,34.7049
2023-04-18T04:35:56.024Z,34.7009
2023-04-18T04:36:59.914Z,34.7293
2023-04-18T04:38:03.813Z,34.7711
2023-04-18T04:39:07.938Z,34.7829
2023-04-18T04:40:11.847Z,34.8070
2023-04-18T04:41:15.709Z,34.7991
2023-04-18T04:42:19.588Z,34.7884
2023-04-18T04:43:23.488Z,34.7927
2023-04-18T04:44:27.700Z,34.8123
2023-04-18T04:45:31.612Z,34.8681
2023-04-18T04:46:35.773Z,34.8922
2023-04-18T04:47:39.739Z,34.9078
2023-04-18T04:48:43.649Z,34.9068
2023-04-18T04:49:47.493Z,34.9227
2023-04-18T04:50:51.376Z,34.9290
2023-04-18T04:51:55.285Z,34.9079
2023-04-18T04:52:59.185Z,34.9241
2023-04-18T04:54:03.109Z,34.9514
2023-04-18T04:55:06.988Z,34.9514
2023-04-18T04:56:10.859Z,34.9585
2023-04-18T04:57:14.768Z,34.9646
2023-04-18T04:58:18.685Z,34.9968
2023-04-18T04:59:22.989Z,34.9894
2023-04-18T05:00:26.910Z,34.9983
2023-04-18T05:01:31.061Z,35.0231
2023-04-18T05:02:35.050Z,35.0189
2023-04-18T05:03:39.438Z,34.9987
2023-04-18T05:04:43.431Z,35.0061
2023-04-18T05:05:47.275Z,35.0364
2023-04-18T05:06:51.264Z,35.0589
2023-04-18T05:07:55.153Z,35.0436
2023-04-18T05:08:59.043Z,35.0712
2023-04-18T05:10:02.969Z,35.1087
2023-04-18T05:11:06.863Z,35.1064
2023-04-18T05:12:11.012Z,35.1072
2023-04-18T05:13:14.915Z,35.1139
2023-04-18T05:14:19.025Z,35.1694
2023-04-18T05:15:22.914Z,35.2080
2023-04-18T05:16:26.872Z,35.2232
2023-04-18T05:17:30.789Z,35.2501
2023-04-18T05:18:35.092Z,35.3066
2023-04-18T05:19:39.019Z,35.4294
2023-04-18T05:20:42.901Z,35.4278
2023-04-18T05:21:46.779Z,35.3806
2023-04-18T05:22:50.686Z,35.4026
2023-04-18T05:23:54.867Z,35.5206
2023-04-18T05:24:58.749Z,35.5603
2023-04-18T05:26:02.678Z,35.6301
2023-04-18T05:27:06.592Z,35.6840
2023-04-18T05:28:10.471Z,35.7125
2023-04-18T05:29:14.347Z,35.7481
2023-04-18T05:30:18.264Z,35.7769
2023-04-18T05:31:22.201Z,35.6622
2023-04-18T05:32:26.057Z,35.6522
2023-04-18T05:33:29.953Z,35.6419
2023-04-18T05:34:33.839Z,35.6914
2023-04-18T05:35:37.745Z,35.6277
2023-04-18T05:36:41.658Z,35.6531
2023-04-18T05:37:45.541Z,35.7581
2023-04-18T05:38:49.456Z,35.7608
2023-04-18T05:39:53.343Z,35.6844
2023-04-18T05:40:57.221Z,35.6128
2023-04-18T05:42:01.367Z,35.5934
2023-04-18T05:43:05.269Z,35.5459
2023-04-18T05:44:09.186Z,35.5411
2023-04-18T05:45:13.086Z,35.5576
2023-04-18T05:46:17.300Z,35.5694
2023-04-18T05:47:21.275Z,35.5515
2023-04-18T05:48:25.188Z,35.5119
2023-04-18T05:49:29.063Z,35.5412
2023-04-18T05:50:32.958Z,35.4976
2023-04-18T05:51:37.083Z,35.4405
2023-04-18T05:52:40.984Z,35.5308
2023-04-18T05:53:44.855Z,35.5400
2023-04-18T05:54:48.757Z,35.5407
2023-04-18T05:55:52.635Z,35.5618
2023-04-18T05:56:56.528Z,35.5123
2023-04-18T05:58:00.437Z,35.5253
2023-04-18T05:59:04.587Z,35.4336
2023-04-18T06:00:08.476Z,35.4550
2023-04-18T06:01:12.407Z,35.5117
2023-04-18T06:02:16.379Z,35.4337
2023-04-18T06:03:20.600Z,35.4902
2023-04-18T06:04:24.670Z,35.4852
2023-04-18T06:05:28.899Z,35.4569
2023-04-18T06:06:33.239Z,35.5383
2023-04-18T06:07:37.132Z,35.5655
2023-04-18T06:08:41.055Z,35.5138
2023-04-18T06:09:44.970Z,35.5006
2023-04-18T06:10:48.885Z,35.5853
2023-04-18T06:11:52.828Z,35.5720
2023-04-18T06:12:56.704Z,35.6048
2023-04-18T06:14:00.863Z,35.6453
2023-04-18T06:15:04.762Z,35.6802
2023-04-18T06:16:08.878Z,35.6900
2023-04-18T06:17:12.859Z,35.7276
2023-04-18T06:18:16.738Z,35.6488
2023-04-18T06:19:20.651Z,35.6952
2023-04-18T06:20:24.544Z,35.6312
2023-04-18T06:21:28.436Z,35.5058
2023-04-18T06:22:32.326Z,35.5880
2023-04-18T06:23:36.454Z,35.6388
2023-04-18T06:24:40.345Z,35.6792
2023-04-18T06:25:44.225Z,35.7525
2023-04-18T06:26:48.391Z,35.6385
2023-04-18T06:27:52.270Z,35.6672
2023-04-18T06:28:56.189Z,35.7346
2023-04-18T06:30:00.165Z,35.7680
2023-04-18T06:31:04.081Z,35.8799
2023-04-18T06:32:07.964Z,36.1864
2023-04-18T06:33:11.821Z,36.3246
2023-04-18T06:34:15.905Z,36.3414
2023-04-18T06:35:19.968Z,36.2596
2023-04-18T06:36:24.102Z,36.0801
2023-04-18T06:37:27.995Z,36.1170
2023-04-18T06:38:31.875Z,36.0881
2023-04-18T06:39:35.799Z,36.0019
2023-04-18T06:40:39.738Z,36.1106
2023-04-18T06:41:43.649Z,36.0840
2023-04-18T06:42:47.563Z,36.0609
2023-04-18T06:44:02.851Z,35.9686
2023-04-18T06:44:55.947Z,36.0537
2023-04-18T06:45:59.944Z,35.8690
2023-04-18T06:47:03.845Z,35.8616
2023-04-18T06:48:07.820Z,35.9679
2023-04-18T06:49:11.694Z,35.9729
2023-04-18T06:50:15.579Z,36.0422
2023-04-18T06:51:19.483Z,35.9094
2023-04-18T06:52:23.948Z,35.5796
2023-04-18T06:53:27.818Z,35.7348
2023-04-18T06:54:31.718Z,35.8995
2023-04-18T06:55:35.629Z,35.6523
2023-04-18T06:56:39.565Z,35.5764
2023-04-18T06:57:43.463Z,35.7788
2023-04-18T06:58:47.370Z,35.7965
2023-04-18T06:59:51.261Z,35.9005
2023-04-18T07:00:55.190Z,35.9960
2023-04-18T07:01:59.087Z,36.0236
2023-04-18T07:03:03.101Z,35.9876
2023-04-18T07:04:07.166Z,36.1452
2023-04-18T07:05:11.106Z,36.3425
2023-04-18T07:06:14.995Z,36.3157
2023-04-18T07:07:18.934Z,36.2380
2023-04-18T07:08:22.906Z,36.3256
2023-04-18T07:09:26.860Z,36.0943
2023-04-18T07:10:30.774Z,35.9709
2023-04-18T07:11:34.926Z,35.9795
2023-04-18T07:12:38.833Z,36.0842
2023-04-18T07:13:42.973Z,36.2272
2023-04-18T07:14:46.918Z,35.9260
2023-04-18T07:15:50.813Z,35.8928
2023-04-18T07:16:54.774Z,36.0873
2023-04-18T07:17:58.803Z,35.9614
2023-04-18T07:19:02.704Z,36.2393
2023-04-18T07:20:06.619Z,36.2435
2023-04-18T07:21:10.610Z,36.3069
2023-04-18T07:22:14.531Z,36.2212
2023-04-18T07:23:18.456Z,36.2248
2023-04-18T07:24:22.392Z,36.3120
2023-04-18T07:25:26.310Z,36.2746
2023-04-18T07:26:30.241Z,36.4621
2023-04-18T07:27:34.151Z,36.5749
2023-04-18T07:28:38.401Z,36.5218
2023-04-18T07:29:42.285Z,36.3860
2023-04-18T07:30:46.294Z,36.3259
2023-04-18T07:31:50.216Z,36.3879
2023-04-18T07:32:54.189Z,36.4140
2023-04-18T07:33:58.130Z,36.5053
2023-04-18T07:35:02.157Z,36.3268
2023-04-18T07:36:06.088Z,36.1318
2023-04-18T07:37:10.015Z,36.6289
2023-04-18T07:38:13.963Z,36.5031
2023-04-18T07:39:17.858Z,36.3402
2023-04-18T07:40:21.837Z,36.2915
2023-04-18T07:41:25.730Z,36.3854
2023-04-18T07:42:29.642Z,36.2852
2023-04-18T07:43:33.546Z,36.3364
2023-04-18T07:44:37.509Z,36.2632
2023-04-18T07:45:41.408Z,36.2173
2023-04-18T07:46:45.411Z,36.1382
2023-04-18T07:47:49.388Z,36.3147
2023-04-18T07:48:53.282Z,36.5128
2023-04-18T07:49:57.269Z,36.4668
2023-04-18T07:51:01.187Z,36.5436
2023-04-18T07:52:05.123Z,36.5409
2023-04-18T07:53:09.292Z,36.5974
2023-04-18T07:54:13.242Z,36.5550
2023-04-18T07:55:17.170Z,36.4768
2023-04-18T07:56:21.097Z,36.3787
2023-04-18T07:57:25.019Z,36.4954
2023-04-18T07:58:28.956Z,36.6993
2023-04-18T07:59:32.871Z,36.3944
2023-04-18T08:00:36.827Z,36.3060
2023-04-18T08:01:40.799Z,36.3990
2023-04-18T08:02:44.814Z,36.4712
2023-04-18T08:03:48.868Z,36.4421
2023-04-18T08:04:53.054Z,36.4068
2023-04-18T08:05:57.126Z,36.5710
2023-04-18T08:07:01.070Z,36.5279
2023-04-18T08:08:05.014Z,36.4673
2023-04-18T08:09:08.919Z,36.4182
2023-04-18T08:10:13.107Z,36.3153
2023-04-18T08:11:17.010Z,36.2661
2023-04-18T08:12:20.940Z,36.1788
2023-04-18T08:13:24.873Z,36.1035
2023-04-18T08:14:28.848Z,36.2076
2023-04-18T08:15:33.050Z,36.2556
2023-04-18T08:16:37.002Z,36.2538
2023-04-18T08:17:40.979Z,36.2617
2023-04-18T08:18:44.906Z,36.2809
2023-04-18T08:19:48.859Z,36.2651
2023-04-18T08:20:52.817Z,36.3288
2023-04-18T08:21:56.886Z,36.2787
2023-04-18T08:23:07.323Z,36.3439
2023-04-18T08:24:05.406Z,36.2656
2023-04-18T08:25:09.505Z,36.2913
2023-04-18T08:26:13.426Z,36.1775
2023-04-18T08:27:17.367Z,36.1630
2023-04-18T08:28:21.536Z,36.1709
2023-04-18T08:29:25.446Z,36.2027
2023-04-18T08:30:29.429Z,36.0928
2023-04-18T08:31:33.436Z,36.0713
2023-04-18T08:32:37.507Z,36.1185
2023-04-18T08:33:41.453Z,36.1467
2023-04-18T08:34:45.372Z,36.1891
2023-04-18T08:35:49.334Z,36.1261
2023-04-18T08:36:53.312Z,36.0422
2023-04-18T08:37:57.311Z,35.9373
2023-04-18T08:39:01.236Z,35.9472
2023-04-18T08:40:05.207Z,36.0212
2023-04-18T08:41:09.169Z,36.0315
2023-04-18T08:42:13.082Z,36.0145
2023-04-18T08:43:17.048Z,35.9675
2023-04-18T08:44:21.046Z,35.9668
2023-04-18T08:45:25.016Z,35.9546
2023-04-18T08:46:29.261Z,36.0539
2023-04-18T08:47:33.189Z,36.0351
2023-04-18T08:48:37.228Z,36.0339
2023-04-18T08:49:41.161Z,35.9957
2023-04-18T08:50:45.185Z,35.9434
2023-04-18T08:51:49.057Z,35.9772
2023-04-18T08:52:52.993Z,36.0436
2023-04-18T08:53:56.925Z,36.0049
2023-04-18T08:55:01.006Z,36.0489
2023-04-18T08:56:04.935Z,36.0791
2023-04-18T08:57:09.009Z,35.9233
2023-04-18T08:58:13.015Z,35.8259
2023-04-18T08:59:16.993Z,35.9308
2023-04-18T09:00:21.005Z,35.9588
2023-04-18T09:01:24.966Z,35.9649
2023-04-18T09:02:28.920Z,35.9583
2023-04-18T09:03:32.870Z,35.9443
2023-04-18T09:04:36.959Z,35.8391
2023-04-18T09:05:41.186Z,35.7792
2023-04-18T09:06:46.050Z,35.7495
2023-04-18T09:07:49.951Z,35.7488
2023-04-18T09:08:53.845Z,35.5919
2023-04-18T09:09:53.969Z,35.6656
2023-04-18T09:10:57.860Z,35.7130
2023-04-18T09:12:01.790Z,35.5952
2023-04-18T09:13:05.699Z,35.5581
2023-04-18T09:14:09.629Z,35.5750
2023-04-18T09:15:13.606Z,35.4271
2023-04-18T09:16:17.561Z,35.3211
2023-04-18T09:17:21.522Z,35.4248
2023-04-18T09:18:25.715Z,35.5211
2023-04-18T09:19:29.644Z,35.5792
2023-04-18T09:20:33.585Z,35.6699
2023-04-18T09:21:37.492Z,35.7101
2023-04-18T09:22:41.406Z,35.5554
2023-04-18T09:23:45.336Z,35.6401
2023-04-18T09:24:49.224Z,35.8096
2023-04-18T09:25:53.154Z,35.9157
2023-04-18T09:26:57.098Z,35.8824
2023-04-18T09:28:01.273Z,35.8422
2023-04-18T09:29:05.358Z,35.7092
2023-04-18T09:30:09.272Z,35.6514
2023-04-18T09:31:13.306Z,35.6891
2023-04-18T09:32:17.314Z,35.6719
2023-04-18T09:33:21.211Z,35.6600
2023-04-18T09:34:25.213Z,35.6227
2023-04-18T09:35:29.103Z,35.7019
2023-04-18T09:36:33.105Z,35.8197
2023-04-18T09:37:37.010Z,35.8072
2023-04-18T09:38:41.112Z,35.6573
2023-04-18T09:39:45.146Z,35.6140
2023-04-18T09:40:49.081Z,35.5844
2023-04-18T09:41:52.990Z,35.5948
2023-04-18T09:42:56.961Z,35.6366
2023-04-18T09:44:00.875Z,35.4537
2023-04-18T09:45:05.121Z,35.5858
2023-04-18T09:46:09.079Z,35.7280
2023-04-18T09:47:13.080Z,35.8470
2023-04-18T09:48:16.973Z,35.9232
2023-04-18T09:49:20.884Z,35.8947
2023-04-18T09:50:24.810Z,35.8663
2023-04-18T09:51:28.783Z,35.9077
2023-04-18T09:52:32.859Z,35.7102
2023-04-18T09:53:36.786Z,35.5618
2023-04-18T09:54:40.666Z,35.4253
2023-04-18T09:55:44.596Z,35.3723
2023-04-18T09:56:48.523Z,35.4220
2023-04-18T09:57:52.704Z,35.4899
2023-04-18T09:58:56.660Z,35.5861
2023-04-18T10:00:00.592Z,35.5539
2023-04-18T10:01:04.513Z,35.4945
2023-04-18T10:02:08.582Z,35.5914
2023-04-18T10:03:12.603Z,35.5713
2023-04-18T10:04:16.971Z,35.5469
2023-04-18T10:05:21.434Z,35.6498
2023-04-18T10:06:25.413Z,35.6463
2023-04-18T10:07:29.306Z,35.5763
2023-04-18T10:08:33.209Z,35.5113
2023-04-18T10:09:37.126Z,35.4533
2023-04-18T10:10:41.096Z,35.6694
2023-04-18T10:11:44.988Z,35.6925
2023-04-18T10:12:48.989Z,35.8525
2023-04-18T10:13:53.035Z,36.0634
2023-04-18T10:14:56.970Z,35.9977
2023-04-18T10:16:00.884Z,35.8877
2023-04-18T10:17:04.767Z,35.9205
2023-04-18T10:18:08.727Z,35.9756
2023-04-18T10:19:13.109Z,35.9729
2023-04-18T10:20:17.226Z,35.8920
2023-04-18T10:21:21.181Z,35.9195
2023-04-18T10:22:25.116Z,36.0405
2023-04-18T10:23:29.055Z,36.0067
2023-04-18T10:24:33.092Z,36.0001
2023-04-18T10:25:37.110Z,36.1554
2023-04-18T10:26:41.061Z,36.1467
2023-04-18T10:27:45.335Z,36.0506
2023-04-18T10:28:49.295Z,36.0957
2023-04-18T10:29:53.275Z,36.1367
2023-04-18T10:30:57.404Z,36.1229
2023-04-18T10:32:01.393Z,35.9832
2023-04-18T10:33:08.494Z,36.0800
2023-04-18T10:34:09.847Z,36.0607
2023-04-18T10:35:13.832Z,36.2875
2023-04-18T10:36:17.805Z,36.4106
2023-04-18T10:37:21.808Z,36.2189
2023-04-18T10:38:25.834Z,36.1513
2023-04-18T10:39:29.777Z,36.1086
2023-04-18T10:40:33.781Z,36.0758
2023-04-18T10:41:37.754Z,36.3347
2023-04-18T10:42:41.748Z,36.3475
2023-04-18T10:43:45.648Z,36.3904
2023-04-18T10:44:49.897Z,36.2671
2023-04-18T10:45:53.917Z,36.3392
2023-04-18T10:46:57.864Z,36.4005
2023-04-18T10:47:58.343Z,36.3592
2023-04-18T10:49:02.248Z,36.1882
2023-04-18T10:50:06.968Z,36.0389
2023-04-18T10:51:11.075Z,36.2587
2023-04-18T10:52:15.037Z,36.1573
2023-04-18T10:53:18.986Z,35.8960
2023-04-18T10:54:22.975Z,35.8515
2023-04-18T10:55:27.103Z,36.0638
2023-04-18T10:56:31.115Z,35.9696
2023-04-18T10:57:35.247Z,35.8612
2023-04-18T10:58:39.147Z,35.9230
2023-04-18T10:59:43.102Z,35.8517
2023-04-18T11:00:47.121Z,35.9252
2023-04-18T11:01:51.026Z,35.9144
2023-04-18T11:02:55.190Z,36.0357
2023-04-18T11:03:59.297Z,36.0749
2023-04-18T11:05:03.299Z,36.2729
2023-04-18T11:06:07.239Z,36.3303
2023-04-18T11:07:11.788Z,35.9443
2023-04-18T11:08:15.838Z,36.2305
2023-04-18T11:09:19.795Z,36.0686
2023-04-18T11:10:23.902Z,35.9742
2023-04-18T11:11:27.828Z,36.0292
2023-04-18T11:12:31.782Z,36.0561
2023-04-18T11:13:35.771Z,36.1933
2023-04-18T11:14:39.824Z,36.2233
2023-04-18T11:15:43.783Z,36.3306
2023-04-18T11:16:47.858Z,36.2451
2023-04-18T11:17:51.907Z,36.3603
2023-04-18T11:18:55.888Z,36.4408
2023-04-18T11:19:59.927Z,36.4028
2023-04-18T11:21:03.951Z,36.3859
2023-04-18T11:22:07.906Z,36.2038
2023-04-18T11:23:11.944Z,36.2280
2023-04-18T11:24:16.039Z,36.2140
2023-04-18T11:25:20.147Z,36.3485
2023-04-18T11:26:24.217Z,36.3020
2023-04-18T11:27:28.163Z,36.2284
2023-04-18T11:28:32.167Z,36.4293
2023-04-18T11:29:36.468Z,36.5754
2023-04-18T11:30:40.361Z,36.5802
2023-04-18T11:31:44.378Z,36.6433
2023-04-18T11:32:48.354Z,36.5751
2023-04-18T11:33:52.287Z,36.6094
2023-04-18T11:34:56.268Z,36.6189
2023-04-18T11:36:00.288Z,36.4028
2023-04-18T11:37:04.213Z,36.1444
2023-04-18T11:38:08.157Z,36.2754
2023-04-18T11:39:12.117Z,36.1438
2023-04-18T11:40:16.277Z,36.2567
2023-04-18T11:41:20.242Z,36.2427
2023-04-18T11:42:24.457Z,36.2996
2023-04-18T11:43:28.352Z,36.1190
2023-04-18T11:44:33.764Z,35.9862
2023-04-18T11:45:34.096Z,35.9339
2023-04-18T11:46:38.368Z,36.1040
2023-04-18T11:47:42.579Z,36.1442
2023-04-18T11:48:46.499Z,36.1134
2023-04-18T11:49:50.509Z,36.0418
2023-04-18T11:50:54.465Z,36.1748
2023-04-18T11:51:58.627Z,36.0478
2023-04-18T11:53:02.537Z,36.0426
2023-04-18T11:54:06.465Z,35.8746
2023-04-18T11:55:10.660Z,36.0903
2023-04-18T11:56:14.585Z,36.2561
2023-04-18T11:57:18.523Z,36.4823
2023-04-18T11:58:22.461Z,36.2322
2023-04-18T11:59:26.400Z,36.0825
2023-04-18T12:00:30.383Z,35.9781
2023-04-18T12:01:34.281Z,35.9883
2023-04-18T12:02:38.472Z,36.0197
2023-04-18T12:03:42.669Z,35.9386
2023-04-18T12:04:47.037Z,36.1504
2023-04-18T12:05:51.370Z,36.0054
2023-04-18T12:06:55.393Z,36.1507
2023-04-18T12:07:59.291Z,36.2381
2023-04-18T12:09:03.193Z,36.1128
2023-04-18T12:10:07.370Z,35.8331
2023-04-18T12:11:11.320Z,35.8311
2023-04-18T12:12:15.275Z,35.9164
2023-04-18T12:13:19.238Z,35.8606
2023-04-18T12:14:23.292Z,35.7284
2023-04-18T12:15:27.304Z,35.7412
2023-04-18T12:16:31.295Z,35.7368
2023-04-18T12:17:35.275Z,35.7743
2023-04-18T12:18:39.271Z,35.8541
2023-04-18T12:19:43.132Z,35.7013
2023-04-18T12:20:47.105Z,35.5324
2023-04-18T12:21:51.050Z,35.7468
2023-04-18T12:22:55.052Z,35.6767
2023-04-18T12:23:58.979Z,35.5670
2023-04-18T12:25:02.885Z,35.5563
2023-04-18T12:26:06.816Z,35.5511
2023-04-18T12:27:11.025Z,35.3772
2023-04-18T12:28:14.975Z,35.4655
2023-04-18T12:29:19.292Z,35.4295
2023-04-18T12:30:23.187Z,35.4847
2023-04-18T12:31:27.214Z,35.6254
2023-04-18T12:32:31.237Z,35.5337
2023-04-18T12:33:35.238Z,35.5074
2023-04-18T12:34:39.197Z,35.4847
2023-04-18T12:35:43.116Z,35.4037
2023-04-18T12:36:47.346Z,35.4967
2023-04-18T12:37:51.245Z,35.5969
2023-04-18T12:38:55.201Z,35.6110
2023-04-18T12:39:59.163Z,35.5001
2023-04-18T12:41:03.112Z,35.4929
2023-04-18T12:42:07.041Z,35.3616
2023-04-18T12:43:11.001Z,35.2207
2023-04-18T12:44:15.135Z,35.2731
2023-04-18T12:45:19.105Z,35.2585
2023-04-18T12:46:23.129Z,35.2552
2023-04-18T12:47:27.130Z,35.3380
2023-04-18T12:48:31.057Z,35.5141
2023-04-18T12:49:34.982Z,35.4878
2023-04-18T12:50:38.915Z,35.4078
2023-04-18T12:51:42.796Z,35.4041
2023-04-18T12:52:46.732Z,35.4241
2023-04-18T12:53:50.642Z,35.4077